Time;durP1;ratioP1;P1;durP2;ratioP2;P2;SDS_P1;SDS_P2;PMS_P1;PMS_P2;Temp;Humidity;BMP_temperature;BMP_pressure;BME280_temperature;BME280_humidity;BME280_pressure;Samples;Min_cycle;Max_cycle;Signal;HPM_P1;HPM_P2
2023/03/28 00:01:03;;;;;;;5.00;1.40;;;;;;;;;;110157;1279;22895;-78
2023/03/28 00:03:34;;;;;;;5.70;1.40;;;;;;;;;;110142;1262;22115;-78
2023/03/28 00:06:04;;;;;;;7.30;1.60;;;;;;;;;;110141;1279;22150;-77
2023/03/28 00:08:33;;;;;;;4.10;1.10;;;;;;;;;;110154;1279;22927;-78
2023/03/28 00:11:04;;;;;;;8.10;1.50;;;;;;;;;;110144;1279;22089;-79
2023/03/28 00:13:32;;;;;;;3.80;1.10;;;;;;;;;;110131;1262;22110;-79
2023/03/28 00:16:05;;;;;;;4.50;1.10;;;;;;;;;;110152;1279;22265;-79
2023/03/28 00:18:36;;;;;;;5.60;1.50;;;;;;;;;;110083;1279;21984;-79
2023/03/28 00:21:18;;;;;;;5.60;0.90;;;;;;;;;;110045;1281;22917;-79
2023/03/28 00:23:51;;;;;;;6.10;1.30;;;;;;;;;;110087;1262;22906;-77
2023/03/28 00:26:21;;;;;;;4.90;1.40;;;;;;;;;;110072;1281;22110;-78
2023/03/28 00:28:51;;;;;;;6.90;1.40;;;;;;;;;;110057;1281;22928;-78
2023/03/28 00:31:22;;;;;;;3.70;1.10;;;;;;;;;;110041;1279;22112;-77
2023/03/28 00:33:51;;;;;;;5.20;1.40;;;;;;;;;;110135;1258;23043;-78
2023/03/28 00:36:25;;;;;;;4.60;1.30;;;;;;;;;;110072;1281;22113;-77
2023/03/28 00:38:56;;;;;;;5.80;1.80;;;;;;;;;;110047;1279;22620;-79
2023/03/28 00:41:29;;;;;;;7.60;1.80;;;;;;;;;;110053;1281;22140;-78
2023/03/28 00:43:59;;;;;;;7.40;1.80;;;;;;;;;;110104;1257;22179;-77
2023/03/28 00:46:35;;;;;;;6.60;1.60;;;;;;;;;;110036;1281;21995;-77
2023/03/28 00:49:23;;;;;;;6.40;1.60;;;;;;;;;;110027;1281;22853;-77
2023/03/28 00:51:56;;;;;;;6.80;1.50;;;;;;;;;;110027;1281;22108;-78
2023/03/28 00:54:27;;;;;;;4.60;1.50;;;;;;;;;;110042;1263;21909;-76
2023/03/28 00:56:58;;;;;;;5.50;1.60;;;;;;;;;;110027;1280;22180;-77
2023/03/28 00:59:33;;;;;;;5.90;2.00;;;;;;;;;;110056;1281;22404;-76
2023/03/28 01:02:02;;;;;;;6.30;1.30;;;;;;;;;;110065;1281;22080;-77
2023/03/28 01:04:37;;;;;;;2.80;0.80;;;;;;;;;;110023;1258;22126;-78
2023/03/28 01:07:06;;;;;;;3.00;0.30;;;;;;;;;;110033;1281;22278;-79
2023/03/28 01:09:38;;;;;;;2.10;0.60;;;;;;;;;;110032;1281;22745;-76
2023/03/28 01:12:09;;;;;;;2.50;0.90;;;;;;;;;;110022;1281;22459;-80
2023/03/28 01:14:50;;;;;;;3.80;0.90;;;;;;;;;;110141;1261;22002;-81
2023/03/28 01:17:20;;;;;;;1.90;0.70;;;;;;;;;;110002;1281;22320;-77
2023/03/28 01:27:32;;;;;;;4.40;1.40;;;;;;;;;;104193;1293;545002;-84
2023/03/28 01:30:23;;;;;;;7.70;2.30;;;;;;;;;;105886;1293;24213;-83
2023/03/28 01:34:07;;;;;;;6.20;2.40;;;;;;;;;;105773;1291;24572;-83
2023/03/28 01:40:33;;;;;;;7.10;2.10;;;;;;;;;;102183;1287;5378678;-78
2023/03/28 01:43:05;;;;;;;7.80;2.90;;;;;;;;;;106409;1287;25471;-79
2023/03/28 01:45:47;;;;;;;7.20;2.10;;;;;;;;;;106085;1287;25318;-81
2023/03/28 01:48:27;;;;;;;7.40;2.90;;;;;;;;;;105973;1288;25246;-79
2023/03/28 01:52:08;;;;;;;9.80;2.30;;;;;;;;;;105966;1289;24323;-81
2023/03/28 01:55:16;;;;;;;9.70;2.60;;;;;;;;;;106070;1288;25324;-79
2023/03/28 01:58:11;;;;;;;7.60;2.10;;;;;;;;;;106080;1270;22529;-80
2023/03/28 02:00:58;;;;;;;4.70;1.60;;;;;;;;;;106374;1287;22534;-80
2023/03/28 02:03:42;;;;;;;7.00;2.30;;;;;;;;;;106130;1287;24601;-85
2023/03/28 02:09:40;;;;;;;;;;;;;;;;;;;;;
2023/03/28 02:13:25;;;;;;;;;;;;;;;;;;;;;
2023/03/28 02:16:37;;;;;;;8.50;2.00;;;;;;;;;;105306;1295;22805;-84
2023/03/28 02:20:18;;;;;;;6.30;1.70;;;;;;;;;;105394;1297;25374;-80
2023/03/28 02:23:46;;;;;;;6.60;1.60;;;;;;;;;;104925;1299;22661;-81
2023/03/28 02:26:44;;;;;;;;;;;;;;;;;;;;;
2023/03/28 02:29:53;;;;;;;9.30;2.20;;;;;;;;;;105105;1279;24233;-80
2023/03/28 02:33:16;;;;;;;8.00;2.50;;;;;;;;;;105075;1297;22785;-81
2023/03/28 02:36:13;;;;;;;7.20;2.80;;;;;;;;;;105196;1299;22678;-81
2023/03/28 02:39:00;;;;;;;8.90;2.70;;;;;;;;;;105131;1301;24228;-85
2023/03/28 02:42:23;;;;;;;8.50;2.00;;;;;;;;;;105311;1297;25359;-83
2023/03/28 02:45:28;;;;;;;10.60;2.30;;;;;;;;;;105627;1297;25484;-83
2023/03/28 02:48:29;;;;;;;7.30;2.30;;;;;;;;;;105467;1297;24469;-79
2023/03/28 02:51:18;;;;;;;8.30;2.60;;;;;;;;;;105656;1275;24312;-82
2023/03/28 02:54:21;;;;;;;11.90;3.30;;;;;;;;;;105741;1293;25432;-82
2023/03/28 02:57:59;;;;;;;15.40;4.60;;;;;;;;;;105826;1293;23916;-83
2023/03/28 03:01:03;;;;;;;;;;;;;;;;;;;;;
2023/03/28 03:07:22;;;;;;;9.00;1.90;;;;;;;;;;105786;1294;22621;-79
2023/03/28 03:10:18;;;;;;;6.90;1.90;;;;;;;;;;105755;1277;25300;-80
2023/03/28 03:13:06;;;;;;;8.30;2.10;;;;;;;;;;105841;1287;24231;-86
2023/03/28 03:16:25;;;;;;;;;;;;;;;;;;;;;
2023/03/28 03:23:02;;;;;;;5.10;1.10;;;;;;;;;;106367;1268;22513;-82
2023/03/28 03:25:50;;;;;;;;;;;;;;;;;;;;;
2023/03/28 03:28:35;;;;;;;5.00;1.20;;;;;;;;;;106453;1283;25244;-79
2023/03/28 03:31:31;;;;;;;;;;;;;;;;;;;;;
2023/03/28 03:34:40;;;;;;;3.70;0.80;;;;;;;;;;106895;1277;24190;-85
2023/03/28 03:38:00;;;;;;;;;;;;;;;;;;;;;
2023/03/28 03:41:36;;;;;;;4.10;1.00;;;;;;;;;;106899;1254;22563;-84
2023/03/28 03:43:53;;;;;;;2.90;0.70;;;;;;;;;;106742;1277;22536;-81
2023/03/28 03:47:19;;;;;;;;;;;;;;;;;;;;;
2023/03/28 03:50:12;;;;;;;;;;;;;;;;;;;;;
2023/03/28 03:53:32;;;;;;;;;;;;;;;;;;;;;
2023/03/28 04:00:27;;;;;;;2.20;0.60;;;;;;;;;;106061;1287;25494;-79
2023/03/28 04:03:31;;;;;;;;;;;;;;;;;;;;;
2023/03/28 04:06:38;;;;;;;;;;;;;;;;;;;;;
2023/03/28 04:09:27;;;;;;;;;;;;;;;;;;;;;
2023/03/28 04:16:10;;;;;;;2.40;0.50;;;;;;;;;;106216;1287;22711;-85
2023/03/28 04:22:56;;;;;;;2.00;0.80;;;;;;;;;;105894;1273;24405;-87
2023/03/28 04:26:09;;;;;;;;;;;;;;;;;;;;;
2023/03/28 04:32:55;;;;;;;3.90;1.20;;;;;;;;;;105734;1296;24431;-83
2023/03/28 04:36:04;;;;;;;3.20;1.10;;;;;;;;;;105688;1296;22556;-80
2023/03/28 04:39:14;;;;;;;3.50;0.90;;;;;;;;;;106210;1263;25446;-81
2023/03/28 04:49:55;;;;;;;;;;;;;;;;;;;;;
2023/03/28 04:52:53;;;;;;;;;;;;;;;;;;;;;
2023/03/28 04:56:18;;;;;;;2.80;0.90;;;;;;;;;;105869;1292;25337;-82
2023/03/28 04:58:35;;;;;;;3.60;0.90;;;;;;;;;;105636;1289;22720;-80
2023/03/28 05:04:57;;;;;;;2.80;0.70;;;;;;;;;;106039;1278;24381;-86
2023/03/28 05:16:38;;;;;;;3.10;0.90;;;;;;;;;;105880;1271;24240;-80
2023/03/28 05:19:47;;;;;;;8.30;1.00;;;;;;;;;;109461;1292;22218;-80
2023/03/28 05:22:42;;;;;;;3.70;1.30;;;;;;;;;;109449;1288;22213;-78
2023/03/28 05:25:14;;;;;;;5.70;1.20;;;;;;;;;;109570;1273;22191;-81
2023/03/28 05:27:48;;;;;;;4.50;1.50;;;;;;;;;;109632;1289;22127;-81
2023/03/28 05:30:28;;;;;;;4.40;1.20;;;;;;;;;;109558;1289;22128;-79
2023/03/28 05:47:55;;;;;;;3.40;1.10;;;;;;;;;;108935;1277;22058;-79
2023/03/28 05:51:04;;;;;;;;;;;;;;;;;;;;;
2023/03/28 05:53:34;;;;;;;4.10;1.40;;;;;;;;;;109293;1292;22194;-79
2023/03/28 05:56:04;;;;;;;5.50;1.50;;;;;;;;;;109258;1270;22184;-78
2023/03/28 05:58:34;;;;;;;4.10;1.20;;;;;;;;;;109277;1292;22172;-78
2023/03/28 06:01:13;;;;;;;3.00;0.90;;;;;;;;;;109120;1292;22984;-81
2023/03/28 06:03:41;;;;;;;6.40;1.60;;;;;;;;;;109310;1293;23041;-79
2023/03/28 06:06:21;;;;;;;;;;;;;;;;;;;;;
2023/03/28 06:08:48;;;;;;;7.70;1.60;;;;;;;;;;109309;1292;23013;-81
2023/03/28 06:11:17;;;;;;;5.30;1.20;;;;;;;;;;109533;1289;22140;-79
2023/03/28 06:14:06;;;;;;;5.50;1.40;;;;;;;;;;109933;1283;22186;-80
2023/03/28 06:17:06;;;;;;;6.00;1.40;;;;;;;;;;109982;1264;22215;-79
2023/03/28 06:19:40;;;;;;;7.30;1.70;;;;;;;;;;109978;1283;22341;-80
2023/03/28 06:22:08;;;;;;;7.10;1.10;;;;;;;;;;109973;1283;22180;-79
2023/03/28 06:24:36;;;;;;;5.00;1.60;;;;;;;;;;110106;1279;22108;-80
2023/03/28 06:27:29;;;;;;;5.00;1.60;;;;;;;;;;110278;1261;22191;-81
2023/03/28 06:30:03;;;;;;;5.70;1.90;;;;;;;;;;110161;1278;22121;-81
2023/03/28 06:32:41;;;;;;;5.10;1.50;;;;;;;;;;110243;1278;22012;-80
2023/03/28 06:35:11;;;;;;;5.80;1.40;;;;;;;;;;110164;1278;22124;-79
2023/03/28 06:37:40;;;;;;;8.80;2.00;;;;;;;;;;110362;1258;22741;-80
2023/03/28 06:40:07;;;;;;;6.40;1.80;;;;;;;;;;110168;1279;22116;-80
2023/03/28 06:42:35;;;;;;;5.20;1.40;;;;;;;;;;110170;1278;22272;-80
2023/03/28 06:45:22;;;;;;;3.60;1.30;;;;;;;;;;110130;1279;22101;-81
2023/03/28 06:48:36;;;;;;;6.40;1.50;;;;;;;;;;109994;1265;22711;-80
2023/03/28 06:51:26;;;;;;;5.50;1.50;;;;;;;;;;109861;1282;22110;-81
2023/03/28 06:53:53;;;;;;;5.50;1.50;;;;;;;;;;110029;1281;22158;-81
2023/03/28 06:56:29;;;;;;;4.10;1.40;;;;;;;;;;109884;1282;22149;-80
2023/03/28 06:59:45;;;;;;;4.50;0.90;;;;;;;;;;109988;1264;22157;-81
2023/03/28 07:02:03;;;;;;;3.60;1.00;;;;;;;;;;109942;1278;22165;-81
2023/03/28 07:05:13;;;;;;;5.90;1.30;;;;;;;;;;109694;1283;22166;-81
2023/03/28 07:08:07;;;;;;;;;;;;;;;;;;;;;
2023/03/28 07:11:07;;;;;;;;;;;;;;;;;;;;;
2023/03/28 07:18:11;;;;;;;3.90;0.90;;;;;;;;;;109190;1276;22121;-81
2023/03/28 07:20:38;;;;;;;2.70;0.80;;;;;;;;;;108976;1295;22118;-80
2023/03/28 07:23:05;;;;;;;5.40;1.50;;;;;;;;;;108943;1295;22165;-81
2023/03/28 07:25:45;;;;;;;;;;;;;;;;;;;;;
2023/03/28 07:28:18;;;;;;;7.10;1.50;;;;;;;;;;109432;1273;22204;-78
2023/03/28 07:30:52;;;;;;;13.80;4.50;;;;;;;;;;109391;1292;22116;-80
2023/03/28 07:33:19;;;;;;;9.30;3.40;;;;;;;;;;109454;1276;22163;-81
2023/03/28 07:35:49;;;;;;;8.20;1.60;;;;;;;;;;109365;1292;22845;-81
2023/03/28 07:38:26;;;;;;;;;;;;;;;;;;;;;
2023/03/28 07:41:54;;;;;;;6.80;1.40;;;;;;;;;;108828;1297;22221;-82
2023/03/28 07:44:45;;;;;;;6.30;1.50;;;;;;;;;;109163;1281;22119;-81
2023/03/28 07:47:12;;;;;;;7.70;1.50;;;;;;;;;;110004;1280;22112;-82
2023/03/28 07:49:44;;;;;;;8.20;2.30;;;;;;;;;;110170;1262;22120;-82
2023/03/28 07:52:24;;;;;;;6.80;1.70;;;;;;;;;;110066;1279;22119;-82
2023/03/28 07:54:53;;;;;;;6.00;1.80;;;;;;;;;;110202;1279;22138;-82
2023/03/28 07:57:47;;;;;;;6.50;2.00;;;;;;;;;;110060;1279;22204;-82
2023/03/28 08:01:05;;;;;;;5.50;1.90;;;;;;;;;;110064;1264;22124;-80
2023/03/28 08:03:58;;;;;;;4.90;1.30;;;;;;;;;;110101;1281;22140;-82
2023/03/28 08:06:39;;;;;;;6.50;1.70;;;;;;;;;;110102;1281;22140;-81
2023/03/28 08:16:50;;;;;;;;;;;;;;;;;;;;;
2023/03/28 08:19:20;;;;;;;4.70;1.10;;;;;;;;;;110117;1257;22788;-79
2023/03/28 08:22:19;;;;;;;6.30;1.30;;;;;;;;;;110032;1281;22095;-79
2023/03/28 08:32:22;;;;;;;4.80;1.40;;;;;;;;;;109930;1267;22146;-81
2023/03/28 08:34:49;;;;;;;3.50;1.10;;;;;;;;;;109871;1285;22168;-78
2023/03/28 08:37:18;;;;;;;4.50;1.10;;;;;;;;;;109809;1285;22154;-78
2023/03/28 08:39:47;;;;;;;3.90;1.20;;;;;;;;;;109828;1285;22882;-78
2023/03/28 08:42:23;;;;;;;4.10;1.10;;;;;;;;;;109809;1265;22944;-78
2023/03/28 08:52:26;;;;;;;4.60;1.10;;;;;;;;;;109614;1271;22056;-76
2023/03/28 09:02:31;;;;;;;7.10;2.20;;;;;;;;;;109825;1275;22167;-78
2023/03/28 09:04:59;;;;;;;4.70;1.60;;;;;;;;;;110143;1280;22089;-76
2023/03/28 09:07:45;;;;;;;5.90;1.40;;;;;;;;;;110120;1280;22091;-77
2023/03/28 09:10:18;;;;;;;4.70;1.40;;;;;;;;;;110150;1280;22104;-78
2023/03/28 09:13:20;;;;;;;4.20;1.00;;;;;;;;;;110036;1264;22944;-77
2023/03/28 09:16:20;;;;;;;;;;;;;;;;;;;;;
2023/03/28 09:23:33;;;;;;;4.70;0.80;;;;;;;;;;109910;1266;22171;-78
2023/03/28 09:27:00;;;;;;;7.50;2.00;;;;;;;;;;109741;1286;23178;-78
2023/03/28 09:33:48;;;;;;;6.80;1.30;;;;;;;;;;109589;1270;22251;-77
2023/03/28 09:44:07;;;;;;;5.50;1.40;;;;;;;;;;109108;1284;22110;-77
2023/03/28 09:46:52;;;;;;;;;;;;;;;;;;;;;
2023/03/28 09:53:53;;;;;;;7.60;2.20;;;;;;;;;;109853;1268;22223;-77
2023/03/28 09:56:32;;;;;;;9.60;2.50;;;;;;;;;;109794;1287;22039;-77
2023/03/28 09:59:26;;;;;;;6.30;1.70;;;;;;;;;;109743;1287;22053;-76
2023/03/28 10:01:57;;;;;;;6.60;1.80;;;;;;;;;;109619;1288;22144;-76
2023/03/28 10:04:39;;;;;;;5.50;1.40;;;;;;;;;;109990;1265;22844;-76
2023/03/28 10:07:28;;;;;;;3.10;0.90;;;;;;;;;;109767;1288;22143;-76
2023/03/28 10:10:06;;;;;;;4.50;1.20;;;;;;;;;;109722;1285;22956;-76
2023/03/28 10:12:34;;;;;;;3.30;0.90;;;;;;;;;;109561;1264;22391;-77
2023/03/28 10:15:01;;;;;;;5.80;1.70;;;;;;;;;;109639;1287;22171;-77
2023/03/28 10:17:51;;;;;;;14.00;3.40;;;;;;;;;;109714;1287;22232;-76
2023/03/28 10:20:23;;;;;;;12.60;3.70;;;;;;;;;;109598;1289;22156;-77
2023/03/28 10:22:55;;;;;;;7.10;1.80;;;;;;;;;;109682;1265;22194;-81
2023/03/28 10:25:41;;;;;;;7.90;1.70;;;;;;;;;;109532;1289;22228;-80
2023/03/28 10:28:21;;;;;;;3.80;0.70;;;;;;;;;;109959;1268;22007;-80
2023/03/28 10:30:59;;;;;;;11.10;2.30;;;;;;;;;;109894;1284;22141;-83
2023/03/28 10:33:34;;;;;;;30.00;9.60;;;;;;;;;;109895;1263;22130;-80
2023/03/28 10:36:23;;;;;;;44.00;13.50;;;;;;;;;;109988;1284;22128;-78
2023/03/28 10:38:51;;;;;;;16.20;3.90;;;;;;;;;;109946;1284;22117;-78
2023/03/28 10:41:31;;;;;;;11.00;2.50;;;;;;;;;;110042;1281;22114;-77
2023/03/28 10:44:16;;;;;;;4.90;1.40;;;;;;;;;;110132;1262;22137;-77
2023/03/28 10:46:52;;;;;;;23.80;9.00;;;;;;;;;;110047;1281;22884;-87
2023/03/28 10:49:50;;;;;;;14.10;3.60;;;;;;;;;;110067;1281;22100;-75
2023/03/28 10:52:29;;;;;;;7.40;1.50;;;;;;;;;;110061;1281;22128;-75
2023/03/28 10:55:06;;;;;;;7.00;1.30;;;;;;;;;;110090;1262;22175;-76
2023/03/28 10:57:43;;;;;;;6.60;1.70;;;;;;;;;;110079;1281;22232;-77
2023/03/28 11:00:15;;;;;;;9.40;2.70;;;;;;;;;;110090;1280;21800;-78
2023/03/28 11:02:50;;;;;;;10.90;1.80;;;;;;;;;;110024;1281;22083;-77
2023/03/28 11:05:42;;;;;;;6.80;1.80;;;;;;;;;;110081;1262;22756;-76
2023/03/28 11:08:27;;;;;;;4.90;1.40;;;;;;;;;;110004;1281;22302;-76
2023/03/28 11:10:59;;;;;;;6.70;1.40;;;;;;;;;;110089;1281;22145;-77
2023/03/28 11:13:51;;;;;;;7.10;1.10;;;;;;;;;;110068;1281;22074;-76
2023/03/28 11:16:18;;;;;;;6.10;1.10;;;;;;;;;;110471;1262;22165;-78
2023/03/28 11:19:00;;;;;;;6.20;1.50;;;;;;;;;;110055;1282;22107;-77
2023/03/28 11:22:03;;;;;;;;;;;;;;;;;;;;;
2023/03/28 11:24:52;;;;;;;7.00;1.60;;;;;;;;;;110011;1263;22942;-77
2023/03/28 11:27:46;;;;;;;5.40;1.30;;;;;;;;;;110051;1282;22031;-77
2023/03/28 11:30:37;;;;;;;4.20;1.00;;;;;;;;;;110066;1282;22834;-78
2023/03/28 11:33:32;;;;;;;6.10;1.50;;;;;;;;;;110037;1282;22791;-80
2023/03/28 11:36:10;;;;;;;5.90;1.50;;;;;;;;;;110275;1263;22871;-81
2023/03/28 11:38:45;;;;;;;10.10;4.50;;;;;;;;;;109972;1283;23032;-79
2023/03/28 11:41:20;;;;;;;11.70;3.10;;;;;;;;;;110080;1282;22108;-78
2023/03/28 11:44:22;;;;;;;9.30;3.00;;;;;;;;;;110062;1281;22123;-77
2023/03/28 11:47:12;;;;;;;4.60;1.30;;;;;;;;;;110450;1262;22759;-77
2023/03/28 11:50:04;;;;;;;6.80;1.20;;;;;;;;;;110060;1281;22210;-76
2023/03/28 11:52:59;;;;;;;4.80;1.10;;;;;;;;;;110026;1281;22883;-77
2023/03/28 11:55:33;;;;;;;8.00;1.90;;;;;;;;;;110088;1259;22124;-76
2023/03/28 11:58:26;;;;;;;8.90;3.30;;;;;;;;;;110047;1281;22312;-78
2023/03/28 12:01:06;;;;;;;7.60;2.10;;;;;;;;;;110046;1281;22177;-78
2023/03/28 12:04:02;;;;;;;6.40;2.00;;;;;;;;;;110050;1281;22742;-79
2023/03/28 12:06:57;;;;;;;6.50;1.40;;;;;;;;;;110287;1262;22190;-77
2023/03/28 12:09:59;;;;;;;7.10;1.30;;;;;;;;;;110050;1281;22083;-77
2023/03/28 12:12:32;;;;;;;5.40;0.90;;;;;;;;;;110039;1281;22040;-77
2023/03/28 12:15:07;;;;;;;5.80;1.30;;;;;;;;;;110058;1281;22042;-77
2023/03/28 12:17:47;;;;;;;5.70;1.20;;;;;;;;;;110197;1260;22140;-79
2023/03/28 12:27:57;;;;;;;5.50;1.10;;;;;;;;;;103796;1295;544847;-79
2023/03/28 12:30:34;;;;;;;5.10;1.10;;;;;;;;;;106110;1285;22544;-77
2023/03/28 12:33:25;;;;;;;6.20;1.20;;;;;;;;;;106043;1272;22535;-75
2023/03/28 12:36:00;;;;;;;4.20;1.10;;;;;;;;;;106061;1282;22539;-77
2023/03/28 12:38:38;;;;;;;6.50;2.50;;;;;;;;;;106082;1280;22570;-76
2023/03/28 12:41:35;;;;;;;4.90;1.40;;;;;;;;;;104266;1282;2710449;-80
2023/03/28 12:44:11;;;;;;;4.00;1.00;;;;;;;;;;106468;1286;25456;-81
2023/03/28 12:46:51;;;;;;;4.80;1.00;;;;;;;;;;106302;1264;24200;-75
2023/03/28 12:49:31;;;;;;;4.90;1.00;;;;;;;;;;106177;1283;22534;-75
2023/03/28 12:52:11;;;;;;;6.40;1.80;;;;;;;;;;106050;1286;24040;-77
2023/03/28 12:54:57;;;;;;;8.40;2.30;;;;;;;;;;106423;1280;25331;-76
2023/03/28 12:57:40;;;;;;;27.70;8.90;;;;;;;;;;109760;1269;22199;-76
2023/03/28 13:00:21;;;;;;;33.40;11.20;;;;;;;;;;109889;1285;22370;-75
2023/03/28 13:03:32;;;;;;;25.80;6.80;;;;;;;;;;109891;1286;22863;-75
2023/03/28 13:06:10;;;;;;;14.40;4.30;;;;;;;;;;110238;1275;22181;-78
2023/03/28 13:08:47;;;;;;;11.50;3.20;;;;;;;;;;110060;1263;22161;-76
2023/03/28 13:11:24;;;;;;;13.10;3.50;;;;;;;;;;110246;1278;22342;-77
2023/03/28 13:13:57;;;;;;;13.70;3.20;;;;;;;;;;110135;1278;22999;-77
2023/03/28 13:16:36;;;;;;;11.70;2.90;;;;;;;;;;110124;1276;22210;-77
2023/03/28 13:19:08;;;;;;;15.20;4.20;;;;;;;;;;110075;1262;22401;-78
2023/03/28 13:21:54;;;;;;;7.00;2.20;;;;;;;;;;110051;1282;22236;-76
2023/03/28 13:24:24;;;;;;;6.30;1.30;;;;;;;;;;110083;1281;22132;-76
2023/03/28 13:27:20;;;;;;;7.40;1.80;;;;;;;;;;110083;1281;22107;-77
2023/03/28 13:30:02;;;;;;;4.80;1.30;;;;;;;;;;110350;1263;22856;-76
2023/03/28 13:32:51;;;;;;;9.30;2.80;;;;;;;;;;110075;1282;21880;-75
2023/03/28 13:36:16;;;;;;;6.50;2.00;;;;;;;;;;110075;1281;22920;-76
2023/03/28 13:39:04;;;;;;;8.40;2.60;;;;;;;;;;110229;1263;22918;-78
2023/03/28 13:41:40;;;;;;;9.90;3.40;;;;;;;;;;110058;1281;22947;-75
2023/03/28 13:44:22;;;;;;;12.50;4.30;;;;;;;;;;110053;1281;22226;-76
2023/03/28 13:47:00;;;;;;;;;;;;;;;;;;;;;
2023/03/28 13:49:45;;;;;;;13.50;4.80;;;;;;;;;;110248;1264;22163;-76
2023/03/28 13:52:23;;;;;;;13.20;5.20;;;;;;;;;;110033;1281;22324;-77
2023/03/28 13:54:53;;;;;;;10.80;4.30;;;;;;;;;;110060;1282;22407;-75
2023/03/28 13:57:26;;;;;;;13.70;3.80;;;;;;;;;;110031;1282;22151;-77
2023/03/28 13:59:54;;;;;;;10.20;3.30;;;;;;;;;;110110;1264;22144;-77
2023/03/28 14:02:30;;;;;;;18.40;6.50;;;;;;;;;;110039;1281;22114;-77
2023/03/28 14:05:10;;;;;;;27.30;11.50;;;;;;;;;;110045;1281;22218;-79
2023/03/28 14:07:38;;;;;;;16.60;6.70;;;;;;;;;;110054;1279;22133;-77
2023/03/28 14:10:27;;;;;;;9.70;3.40;;;;;;;;;;110037;1263;22108;-76
2023/03/28 14:12:59;;;;;;;26.30;6.40;;;;;;;;;;110028;1282;22200;-75
2023/03/28 14:15:28;;;;;;;21.20;5.60;;;;;;;;;;110437;1274;22737;-76
2023/03/28 14:18:02;;;;;;;13.80;3.40;;;;;;;;;;110327;1277;22007;-77
2023/03/28 14:20:35;;;;;;;16.10;4.60;;;;;;;;;;110193;1260;22302;-78
2023/03/28 14:23:27;;;;;;;19.00;5.50;;;;;;;;;;110281;1278;22137;-76
2023/03/28 14:25:53;;;;;;;11.70;3.10;;;;;;;;;;110282;1264;22256;-80
2023/03/28 14:28:29;;;;;;;6.60;1.70;;;;;;;;;;110218;1278;22130;-77
2023/03/28 14:30:58;;;;;;;6.30;1.50;;;;;;;;;;110614;1260;22192;-79
2023/03/28 14:33:36;;;;;;;4.50;1.20;;;;;;;;;;110163;1277;22206;-78
2023/03/28 14:36:13;;;;;;;7.80;2.00;;;;;;;;;;110309;1278;22139;-78
2023/03/28 14:38:39;;;;;;;8.70;2.80;;;;;;;;;;110272;1274;22082;-75
2023/03/28 14:41:19;;;;;;;9.20;3.20;;;;;;;;;;110535;1257;22117;-79
2023/03/28 14:43:50;;;;;;;10.40;3.30;;;;;;;;;;110271;1278;23253;-76
2023/03/28 14:46:22;;;;;;;6.40;1.70;;;;;;;;;;110300;1278;23160;-75
2023/03/28 14:48:54;;;;;;;8.90;2.00;;;;;;;;;;110246;1278;22144;-80
2023/03/28 14:51:25;;;;;;;5.00;1.40;;;;;;;;;;110521;1260;22102;-77
2023/03/28 14:53:55;;;;;;;4.70;1.20;;;;;;;;;;110277;1278;22939;-79
2023/03/28 14:56:27;;;;;;;6.90;1.80;;;;;;;;;;110274;1278;22087;-77
2023/03/28 14:58:56;;;;;;;7.00;1.90;;;;;;;;;;110335;1278;22132;-77
2023/03/28 15:01:26;;;;;;;9.10;2.30;;;;;;;;;;110465;1260;22141;-77
2023/03/28 15:04:07;;;;;;;5.50;1.20;;;;;;;;;;110293;1278;22835;-75
2023/03/28 15:06:39;;;;;;;6.00;1.50;;;;;;;;;;110377;1278;22675;-77
2023/03/28 15:09:30;;;;;;;9.60;2.00;;;;;;;;;;110141;1278;21990;-77
2023/03/28 15:12:03;;;;;;;7.70;1.60;;;;;;;;;;110030;1266;22130;-77
2023/03/28 15:14:36;;;;;;;8.60;1.90;;;;;;;;;;110084;1276;22125;-77
2023/03/28 15:17:11;;;;;;;7.70;1.80;;;;;;;;;;110099;1279;22136;-79
2023/03/28 15:19:58;;;;;;;6.40;1.60;;;;;;;;;;110090;1280;22216;-81
2023/03/28 15:22:32;;;;;;;9.30;3.20;;;;;;;;;;110374;1259;22849;-78
2023/03/28 15:25:05;;;;;;;13.50;3.40;;;;;;;;;;110245;1278;22457;-78
2023/03/28 15:27:35;;;;;;;11.30;2.10;;;;;;;;;;110182;1278;22733;-77
2023/03/28 15:30:06;;;;;;;12.70;2.30;;;;;;;;;;110152;1278;22239;-77
2023/03/28 15:32:46;;;;;;;11.20;3.00;;;;;;;;;;110344;1259;22763;-77
2023/03/28 15:35:23;;;;;;;7.80;1.90;;;;;;;;;;110326;1278;23063;-76
2023/03/28 15:37:58;;;;;;;6.00;1.50;;;;;;;;;;110223;1278;22104;-75
2023/03/28 15:40:36;;;;;;;5.40;1.20;;;;;;;;;;110194;1278;22578;-80
2023/03/28 15:43:23;;;;;;;6.50;1.80;;;;;;;;;;110518;1270;22447;-79
2023/03/28 15:46:07;;;;;;;6.20;1.70;;;;;;;;;;110301;1278;22224;-77
2023/03/28 15:48:40;;;;;;;7.50;2.10;;;;;;;;;;110156;1278;22120;-77
2023/03/28 15:52:14;;;;;;;;;;;;;;;;;;;;;
2023/03/28 15:54:43;;;;;;;15.20;6.80;;;;;;;;;;109984;1283;22176;-77
2023/03/28 15:57:23;;;;;;;14.00;7.20;;;;;;;;;;109989;1283;22318;-79
2023/03/28 16:00:00;;;;;;;11.00;3.60;;;;;;;;;;109956;1283;22069;-77
2023/03/28 16:02:27;;;;;;;22.80;6.10;;;;;;;;;;110126;1264;22013;-77
2023/03/28 16:04:59;;;;;;;16.60;4.30;;;;;;;;;;110011;1283;22158;-75
2023/03/28 16:07:45;;;;;;;7.90;1.70;;;;;;;;;;109936;1283;22214;-78
2023/03/28 16:10:16;;;;;;;5.40;1.40;;;;;;;;;;110006;1282;22393;-79
2023/03/28 16:13:01;;;;;;;10.20;3.00;;;;;;;;;;110122;1275;22172;-80
2023/03/28 16:15:42;;;;;;;11.30;3.40;;;;;;;;;;109941;1283;22151;-81
2023/03/28 16:18:19;;;;;;;10.20;3.40;;;;;;;;;;110008;1283;22880;-81
2023/03/28 16:20:52;;;;;;;10.00;3.60;;;;;;;;;;109805;1284;22893;-84
2023/03/28 16:23:22;;;;;;;11.30;3.20;;;;;;;;;;110392;1272;22890;-78
2023/03/28 16:33:00;;;;;;;5.60;1.50;;;;;;;;;;109852;1279;22200;-78
2023/03/28 16:35:27;;;;;;;8.40;2.10;;;;;;;;;;109821;1286;22107;-82
2023/03/28 16:37:54;;;;;;;8.90;2.60;;;;;;;;;;109728;1286;22611;-79
2023/03/28 16:40:21;;;;;;;9.10;2.80;;;;;;;;;;109749;1286;22167;-81
2023/03/28 16:42:49;;;;;;;8.50;2.60;;;;;;;;;;109803;1265;22154;-88
2023/03/28 16:45:24;;;;;;;35.00;10.70;;;;;;;;;;109770;1287;22141;-80
2023/03/28 16:48:02;;;;;;;51.10;16.40;;;;;;;;;;109796;1273;22877;-79
2023/03/28 16:50:34;;;;;;;75.80;26.50;;;;;;;;;;109723;1287;22159;-77
2023/03/28 16:53:01;;;;;;;29.40;12.10;;;;;;;;;;109745;1267;22183;-79
2023/03/28 16:55:27;;;;;;;36.10;14.60;;;;;;;;;;109768;1286;22625;-79
2023/03/28 16:57:54;;;;;;;20.90;9.00;;;;;;;;;;109846;1286;22950;-79
2023/03/28 17:00:27;;;;;;;12.20;5.00;;;;;;;;;;109800;1286;22372;-79
2023/03/28 17:02:59;;;;;;;12.90;4.40;;;;;;;;;;109847;1264;22188;-79
2023/03/28 17:05:30;;;;;;;9.40;3.60;;;;;;;;;;109808;1280;22174;-80
2023/03/28 17:07:58;;;;;;;8.70;2.60;;;;;;;;;;110143;1280;22129;-79
2023/03/28 17:10:27;;;;;;;17.50;4.50;;;;;;;;;;109999;1280;22312;-80
2023/03/28 17:12:56;;;;;;;8.70;2.20;;;;;;;;;;110137;1259;22227;-80
2023/03/28 17:15:23;;;;;;;9.00;2.20;;;;;;;;;;110129;1280;23004;-79
2023/03/28 17:17:50;;;;;;;9.00;2.30;;;;;;;;;;110040;1280;22390;-80
2023/03/28 17:20:18;;;;;;;12.00;3.20;;;;;;;;;;110080;1280;22156;-79
2023/03/28 17:22:46;;;;;;;16.80;4.50;;;;;;;;;;110021;1257;22143;-77
2023/03/28 17:25:14;;;;;;;12.90;2.60;;;;;;;;;;110115;1280;22100;-80
2023/03/28 17:27:41;;;;;;;15.00;3.30;;;;;;;;;;110102;1280;22725;-80
2023/03/28 17:30:08;;;;;;;8.00;1.90;;;;;;;;;;110086;1280;22140;-88
2023/03/28 17:32:35;;;;;;;13.80;3.90;;;;;;;;;;110093;1280;22750;-80
2023/03/28 17:35:03;;;;;;;10.40;3.50;;;;;;;;;;110455;1262;22157;-78
2023/03/28 17:37:38;;;;;;;12.90;3.50;;;;;;;;;;110085;1280;22120;-80
2023/03/28 17:51:58;;;;;;;12.60;3.90;;;;;;;;;;109848;1286;22323;-79
2023/03/28 17:54:29;;;;;;;12.90;3.00;;;;;;;;;;109900;1263;23000;-79
2023/03/28 17:57:02;;;;;;;17.70;5.20;;;;;;;;;;109783;1286;22148;-80
2023/03/28 17:59:29;;;;;;;14.30;4.50;;;;;;;;;;109816;1279;22179;-80
2023/03/28 18:02:05;;;;;;;14.00;4.00;;;;;;;;;;109815;1286;22158;-79
2023/03/28 18:04:32;;;;;;;15.00;4.30;;;;;;;;;;109808;1269;22152;-80
2023/03/28 18:07:19;;;;;;;14.90;6.30;;;;;;;;;;109747;1281;22890;-80
2023/03/28 18:09:47;;;;;;;16.00;4.60;;;;;;;;;;109684;1286;22818;-80
2023/03/28 18:12:16;;;;;;;17.40;5.80;;;;;;;;;;109882;1284;22162;-80
2023/03/28 18:14:47;;;;;;;17.10;5.00;;;;;;;;;;110025;1265;22166;-80
2023/03/28 18:17:22;;;;;;;16.60;4.70;;;;;;;;;;109846;1284;22181;-80
2023/03/28 18:20:03;;;;;;;18.70;5.10;;;;;;;;;;109853;1285;23005;-80
2023/03/28 18:22:53;;;;;;;;;;;;;;;;;;;;;
2023/03/28 18:25:47;;;;;;;21.10;6.00;;;;;;;;;;110189;1259;22104;-79
2023/03/28 18:29:10;;;;;;;23.90;7.20;;;;;;;;;;110061;1281;22173;-79
2023/03/28 18:36:36;;;;;;;;;;;;;;;;;;;;;
2023/03/28 18:47:19;;;;;;;13.30;4.00;;;;;;;;;;109560;1272;22934;-80
2023/03/28 18:49:47;;;;;;;17.80;5.20;;;;;;;;;;109461;1290;22170;-80
2023/03/28 18:52:27;;;;;;;14.60;5.00;;;;;;;;;;109457;1290;22230;-80
2023/03/28 18:55:25;;;;;;;14.10;5.10;;;;;;;;;;109518;1290;23097;-80
2023/03/28 18:57:54;;;;;;;16.60;6.10;;;;;;;;;;109412;1276;22834;-80
2023/03/28 19:00:23;;;;;;;19.30;5.90;;;;;;;;;;109539;1290;22119;-78
2023/03/28 19:02:51;;;;;;;17.00;6.20;;;;;;;;;;109595;1290;22416;-78
2023/03/28 19:05:19;;;;;;;26.90;7.70;;;;;;;;;;109326;1290;22164;-82
2023/03/28 19:08:07;;;;;;;29.30;8.70;;;;;;;;;;109532;1272;22190;-81
2023/03/28 19:10:44;;;;;;;20.30;5.70;;;;;;;;;;109872;1284;22620;-80
2023/03/28 19:13:12;;;;;;;23.70;6.60;;;;;;;;;;109938;1284;22630;-80